sensor_id;sensor_type;location;lat;lon;timestamp;temperature;humidity
4215;DHT22;2121;48.062;7.850;2023-05-02T00:00:36;10.30;99.90
4215;DHT22;2121;48.062;7.850;2023-05-02T00:03:03;10.20;99.90
4215;DHT22;2121;48.062;7.850;2023-05-02T00:05:30;10.10;99.90
4215;DHT22;2121;48.062;7.850;2023-05-02T00:07:56;10.00;99.90
4215;DHT22;2121;48.062;7.850;2023-05-02T00:10:22;10.00;99.90
4215;DHT22;2121;48.062;7.850;2023-05-02T00:12:47;9.90;99.90
4215;DHT22;2121;48.062;7.850;2023-05-02T00:15:13;9.90;99.90
4215;DHT22;2121;48.062;7.850;2023-05-02T00:17:40;10.00;99.90
4215;DHT22;2121;48.062;7.850;2023-05-02T00:20:08;10.10;99.90
4215;DHT22;2121;48.062;7.850;2023-05-02T00:22:34;10.10;99.90
4215;DHT22;2121;48.062;7.850;2023-05-02T00:25:00;10.10;99.90
4215;DHT22;2121;48.062;7.850;2023-05-02T00:27:26;10.10;99.90
4215;DHT22;2121;48.062;7.850;2023-05-02T00:29:55;10.20;99.90
4215;DHT22;2121;48.062;7.850;2023-05-02T00:32:21;10.30;99.90
4215;DHT22;2121;48.062;7.850;2023-05-02T00:34:46;10.30;99.90
4215;DHT22;2121;48.062;7.850;2023-05-02T00:37:12;10.30;99.90
4215;DHT22;2121;48.062;7.850;2023-05-02T00:39:38;10.40;99.90
4215;DHT22;2121;48.062;7.850;2023-05-02T00:42:04;10.40;99.90
4215;DHT22;2121;48.062;7.850;2023-05-02T00:44:30;10.50;99.90
4215;DHT22;2121;48.062;7.850;2023-05-02T00:46:56;10.40;99.90
4215;DHT22;2121;48.062;7.850;2023-05-02T00:49:23;10.30;99.90
4215;DHT22;2121;48.062;7.850;2023-05-02T00:51:49;10.30;99.90
4215;DHT22;2121;48.062;7.850;2023-05-02T00:54:15;10.40;99.90
4215;DHT22;2121;48.062;7.850;2023-05-02T00:56:40;10.50;99.90
4215;DHT22;2121;48.062;7.850;2023-05-02T00:59:07;10.60;99.90
4215;DHT22;2121;48.062;7.850;2023-05-02T01:02:02;10.70;99.90
4215;DHT22;2121;48.062;7.850;2023-05-02T01:05:10;10.70;99.90
4215;DHT22;2121;48.062;7.850;2023-05-02T01:08:01;10.70;99.90
4215;DHT22;2121;48.062;7.850;2023-05-02T01:13:25;10.80;99.90
4215;DHT22;2121;48.062;7.850;2023-05-02T01:15:55;10.80;99.90
4215;DHT22;2121;48.062;7.850;2023-05-02T01:18:26;10.80;99.90
4215;DHT22;2121;48.062;7.850;2023-05-02T01:21:09;10.80;99.90
4215;DHT22;2121;48.062;7.850;2023-05-02T01:29:13;10.90;99.90
4215;DHT22;2121;48.062;7.850;2023-05-02T01:31:42;10.90;99.90
4215;DHT22;2121;48.062;7.850;2023-05-02T01:34:10;10.90;99.90
4215;DHT22;2121;48.062;7.850;2023-05-02T01:36:47;10.90;99.90
4215;DHT22;2121;48.062;7.850;2023-05-02T01:39:22;10.90;99.90
4215;DHT22;2121;48.062;7.850;2023-05-02T01:41:51;11.00;99.90
4215;DHT22;2121;48.062;7.850;2023-05-02T01:44:21;11.00;99.90
4215;DHT22;2121;48.062;7.850;2023-05-02T01:46:48;10.90;99.90
4215;DHT22;2121;48.062;7.850;2023-05-02T01:49:17;10.80;99.90
4215;DHT22;2121;48.062;7.850;2023-05-02T01:51:46;10.80;99.90
4215;DHT22;2121;48.062;7.850;2023-05-02T01:54:15;10.80;99.90
4215;DHT22;2121;48.062;7.850;2023-05-02T01:56:42;10.80;99.90
4215;DHT22;2121;48.062;7.850;2023-05-02T01:59:18;10.80;99.90
4215;DHT22;2121;48.062;7.850;2023-05-02T02:01:45;10.80;99.90
4215;DHT22;2121;48.062;7.850;2023-05-02T02:04:14;10.80;99.90
4215;DHT22;2121;48.062;7.850;2023-05-02T02:06:47;10.90;99.90
4215;DHT22;2121;48.062;7.850;2023-05-02T02:09:15;11.00;99.90
4215;DHT22;2121;48.062;7.850;2023-05-02T02:11:56;10.90;99.90
4215;DHT22;2121;48.062;7.850;2023-05-02T02:14:35;10.90;99.90
4215;DHT22;2121;48.062;7.850;2023-05-02T02:17:10;10.80;99.90
4215;DHT22;2121;48.062;7.850;2023-05-02T02:19:39;10.70;99.90
4215;DHT22;2121;48.062;7.850;2023-05-02T02:22:07;10.60;99.90
4215;DHT22;2121;48.062;7.850;2023-05-02T02:24:35;10.60;99.90
4215;DHT22;2121;48.062;7.850;2023-05-02T02:27:02;10.60;99.90
4215;DHT22;2121;48.062;7.850;2023-05-02T02:29:28;10.50;99.90
4215;DHT22;2121;48.062;7.850;2023-05-02T02:31:54;10.40;99.90
4215;DHT22;2121;48.062;7.850;2023-05-02T02:34:20;10.30;99.90
4215;DHT22;2121;48.062;7.850;2023-05-02T02:40:15;10.00;99.90
4215;DHT22;2121;48.062;7.850;2023-05-02T02:42:54;9.80;99.90
4215;DHT22;2121;48.062;7.850;2023-05-02T02:45:43;9.70;99.90
4215;DHT22;2121;48.062;7.850;2023-05-02T02:48:40;9.50;99.90
4215;DHT22;2121;48.062;7.850;2023-05-02T02:52:02;9.40;99.90
4215;DHT22;2121;48.062;7.850;2023-05-02T02:57:40;9.20;99.90
4215;DHT22;2121;48.062;7.850;2023-05-02T03:00:21;9.10;99.90
4215;DHT22;2121;48.062;7.850;2023-05-02T03:02:49;9.00;99.90
4215;DHT22;2121;48.062;7.850;2023-05-02T03:05:18;9.00;99.90
4215;DHT22;2121;48.062;7.850;2023-05-02T03:07:44;8.90;99.90
4215;DHT22;2121;48.062;7.850;2023-05-02T03:10:10;8.80;99.90
4215;DHT22;2121;48.062;7.850;2023-05-02T03:12:36;8.80;99.90
4215;DHT22;2121;48.062;7.850;2023-05-02T03:15:11;8.70;99.90
4215;DHT22;2121;48.062;7.850;2023-05-02T03:17:43;8.80;99.90
4215;DHT22;2121;48.062;7.850;2023-05-02T03:20:09;8.70;99.90
4215;DHT22;2121;48.062;7.850;2023-05-02T03:22:35;8.80;99.90
4215;DHT22;2121;48.062;7.850;2023-05-02T03:25:01;8.80;99.90
4215;DHT22;2121;48.062;7.850;2023-05-02T03:27:27;8.80;99.90
4215;DHT22;2121;48.062;7.850;2023-05-02T03:29:53;8.70;99.90
4215;DHT22;2121;48.062;7.850;2023-05-02T03:32:19;8.60;99.90
4215;DHT22;2121;48.062;7.850;2023-05-02T03:34:45;8.50;99.90
4215;DHT22;2121;48.062;7.850;2023-05-02T03:37:10;8.50;99.90
4215;DHT22;2121;48.062;7.850;2023-05-02T03:39:36;8.50;99.90
4215;DHT22;2121;48.062;7.850;2023-05-02T03:42:02;8.60;99.90
4215;DHT22;2121;48.062;7.850;2023-05-02T03:44:28;8.60;99.90
4215;DHT22;2121;48.062;7.850;2023-05-02T03:46:53;8.70;99.90
4215;DHT22;2121;48.062;7.850;2023-05-02T03:49:19;8.80;99.90
4215;DHT22;2121;48.062;7.850;2023-05-02T03:51:45;8.80;99.90
4215;DHT22;2121;48.062;7.850;2023-05-02T03:54:10;8.80;99.90
4215;DHT22;2121;48.062;7.850;2023-05-02T03:56:36;8.90;99.90
4215;DHT22;2121;48.062;7.850;2023-05-02T03:59:02;8.80;99.90
4215;DHT22;2121;48.062;7.850;2023-05-02T04:01:28;8.90;99.90
4215;DHT22;2121;48.062;7.850;2023-05-02T04:03:54;8.90;99.90
4215;DHT22;2121;48.062;7.850;2023-05-02T04:06:20;9.00;99.90
4215;DHT22;2121;48.062;7.850;2023-05-02T04:08:45;9.10;99.90
4215;DHT22;2121;48.062;7.850;2023-05-02T04:11:11;9.30;99.90
4215;DHT22;2121;48.062;7.850;2023-05-02T04:13:37;9.30;99.90
4215;DHT22;2121;48.062;7.850;2023-05-02T04:16:03;9.30;99.90
4215;DHT22;2121;48.062;7.850;2023-05-02T04:18:29;9.40;99.90
4215;DHT22;2121;48.062;7.850;2023-05-02T04:20:55;9.40;99.90
4215;DHT22;2121;48.062;7.850;2023-05-02T04:23:21;9.50;99.90
4215;DHT22;2121;48.062;7.850;2023-05-02T04:25:55;9.50;99.90
4215;DHT22;2121;48.062;7.850;2023-05-02T04:28:21;9.50;99.90
4215;DHT22;2121;48.062;7.850;2023-05-02T04:30:50;9.60;99.90
4215;DHT22;2121;48.062;7.850;2023-05-02T04:33:16;9.70;99.90
4215;DHT22;2121;48.062;7.850;2023-05-02T04:35:43;9.80;99.90
4215;DHT22;2121;48.062;7.850;2023-05-02T04:38:09;9.90;99.90
4215;DHT22;2121;48.062;7.850;2023-05-02T04:40:34;9.90;99.90
4215;DHT22;2121;48.062;7.850;2023-05-02T04:43:00;9.90;99.90
4215;DHT22;2121;48.062;7.850;2023-05-02T04:45:27;10.00;99.90
4215;DHT22;2121;48.062;7.850;2023-05-02T04:47:52;10.10;99.90
4215;DHT22;2121;48.062;7.850;2023-05-02T04:50:18;10.20;99.90
4215;DHT22;2121;48.062;7.850;2023-05-02T04:52:44;10.20;99.90
4215;DHT22;2121;48.062;7.850;2023-05-02T04:55:10;10.20;99.90
4215;DHT22;2121;48.062;7.850;2023-05-02T04:57:35;10.00;99.90
4215;DHT22;2121;48.062;7.850;2023-05-02T05:00:01;9.90;99.90
4215;DHT22;2121;48.062;7.850;2023-05-02T05:02:27;9.90;99.90
4215;DHT22;2121;48.062;7.850;2023-05-02T05:04:52;9.80;99.90
4215;DHT22;2121;48.062;7.850;2023-05-02T05:07:18;9.80;99.90
4215;DHT22;2121;48.062;7.850;2023-05-02T05:09:44;9.70;99.90
4215;DHT22;2121;48.062;7.850;2023-05-02T05:12:10;9.70;99.90
4215;DHT22;2121;48.062;7.850;2023-05-02T05:14:36;9.80;99.90
4215;DHT22;2121;48.062;7.850;2023-05-02T05:17:01;9.70;99.90
4215;DHT22;2121;48.062;7.850;2023-05-02T05:19:27;9.70;99.90
4215;DHT22;2121;48.062;7.850;2023-05-02T05:21:53;9.70;99.90
4215;DHT22;2121;48.062;7.850;2023-05-02T05:24:19;9.80;99.90
4215;DHT22;2121;48.062;7.850;2023-05-02T05:26:44;9.90;99.90
4215;DHT22;2121;48.062;7.850;2023-05-02T05:29:10;10.00;99.90
4215;DHT22;2121;48.062;7.850;2023-05-02T05:31:36;10.00;99.90
4215;DHT22;2121;48.062;7.850;2023-05-02T05:34:01;10.10;99.90
4215;DHT22;2121;48.062;7.850;2023-05-02T05:36:29;10.10;99.90
4215;DHT22;2121;48.062;7.850;2023-05-02T05:38:55;10.10;99.90
4215;DHT22;2121;48.062;7.850;2023-05-02T05:41:21;10.10;99.90
4215;DHT22;2121;48.062;7.850;2023-05-02T05:43:48;10.10;99.90
4215;DHT22;2121;48.062;7.850;2023-05-02T05:46:14;10.20;99.90
4215;DHT22;2121;48.062;7.850;2023-05-02T05:48:40;10.30;99.90
4215;DHT22;2121;48.062;7.850;2023-05-02T05:51:06;10.50;99.90
4215;DHT22;2121;48.062;7.850;2023-05-02T05:53:32;10.60;99.90
4215;DHT22;2121;48.062;7.850;2023-05-02T05:55:58;10.60;99.90
4215;DHT22;2121;48.062;7.850;2023-05-02T05:58:24;10.60;99.90
4215;DHT22;2121;48.062;7.850;2023-05-02T06:00:50;10.60;99.90
4215;DHT22;2121;48.062;7.850;2023-05-02T06:03:16;10.70;99.90
4215;DHT22;2121;48.062;7.850;2023-05-02T06:05:42;10.90;99.90
4215;DHT22;2121;48.062;7.850;2023-05-02T06:08:07;11.10;99.90
4215;DHT22;2121;48.062;7.850;2023-05-02T06:10:33;11.30;99.90
4215;DHT22;2121;48.062;7.850;2023-05-02T06:12:59;11.40;99.90
4215;DHT22;2121;48.062;7.850;2023-05-02T06:15:25;11.50;99.90
4215;DHT22;2121;48.062;7.850;2023-05-02T06:17:51;11.60;99.90
4215;DHT22;2121;48.062;7.850;2023-05-02T06:20:17;11.70;99.90
4215;DHT22;2121;48.062;7.850;2023-05-02T06:22:42;11.80;99.90
4215;DHT22;2121;48.062;7.850;2023-05-02T06:25:08;11.90;99.90
4215;DHT22;2121;48.062;7.850;2023-05-02T06:27:34;12.20;99.90
4215;DHT22;2121;48.062;7.850;2023-05-02T06:30:00;12.50;99.90
4215;DHT22;2121;48.062;7.850;2023-05-02T06:32:30;12.80;99.90
4215;DHT22;2121;48.062;7.850;2023-05-02T06:34:58;13.00;99.90
4215;DHT22;2121;48.062;7.850;2023-05-02T06:37:24;13.10;99.90
4215;DHT22;2121;48.062;7.850;2023-05-02T06:39:50;13.40;99.90
4215;DHT22;2121;48.062;7.850;2023-05-02T06:42:16;13.70;99.90
4215;DHT22;2121;48.062;7.850;2023-05-02T06:44:41;13.80;99.90
4215;DHT22;2121;48.062;7.850;2023-05-02T06:47:07;14.00;99.90
4215;DHT22;2121;48.062;7.850;2023-05-02T06:49:33;14.00;99.90
4215;DHT22;2121;48.062;7.850;2023-05-02T06:51:58;14.10;99.90
4215;DHT22;2121;48.062;7.850;2023-05-02T06:54:24;14.20;99.90
4215;DHT22;2121;48.062;7.850;2023-05-02T06:56:50;14.20;99.90
4215;DHT22;2121;48.062;7.850;2023-05-02T06:59:16;14.20;99.90
4215;DHT22;2121;48.062;7.850;2023-05-02T07:01:45;13.90;99.90
4215;DHT22;2121;48.062;7.850;2023-05-02T07:04:10;13.80;99.90
4215;DHT22;2121;48.062;7.850;2023-05-02T07:06:36;13.60;99.90
4215;DHT22;2121;48.062;7.850;2023-05-02T07:09:02;13.60;99.90
4215;DHT22;2121;48.062;7.850;2023-05-02T07:11:28;13.70;99.90
4215;DHT22;2121;48.062;7.850;2023-05-02T07:13:53;14.10;99.90
4215;DHT22;2121;48.062;7.850;2023-05-02T07:16:19;14.30;99.90
4215;DHT22;2121;48.062;7.850;2023-05-02T07:18:45;14.40;99.90
4215;DHT22;2121;48.062;7.850;2023-05-02T07:21:14;14.60;99.90
4215;DHT22;2121;48.062;7.850;2023-05-02T07:23:39;14.50;99.90
4215;DHT22;2121;48.062;7.850;2023-05-02T07:26:06;14.50;99.90
4215;DHT22;2121;48.062;7.850;2023-05-02T07:28:32;14.90;99.90
4215;DHT22;2121;48.062;7.850;2023-05-02T07:30:58;15.20;99.90
4215;DHT22;2121;48.062;7.850;2023-05-02T07:33:24;16.00;99.90
4215;DHT22;2121;48.062;7.850;2023-05-02T07:35:50;16.80;99.90
4215;DHT22;2121;48.062;7.850;2023-05-02T07:38:16;17.50;99.90
4215;DHT22;2121;48.062;7.850;2023-05-02T07:40:41;17.80;99.90
4215;DHT22;2121;48.062;7.850;2023-05-02T07:43:08;17.80;99.90
4215;DHT22;2121;48.062;7.850;2023-05-02T07:45:34;18.00;99.90
4215;DHT22;2121;48.062;7.850;2023-05-02T07:48:00;18.30;99.90
4215;DHT22;2121;48.062;7.850;2023-05-02T07:50:26;18.50;99.90
4215;DHT22;2121;48.062;7.850;2023-05-02T07:52:53;18.70;99.90
4215;DHT22;2121;48.062;7.850;2023-05-02T07:55:20;18.70;99.90
4215;DHT22;2121;48.062;7.850;2023-05-02T07:57:46;18.50;99.90
4215;DHT22;2121;48.062;7.850;2023-05-02T08:00:12;17.20;99.90
4215;DHT22;2121;48.062;7.850;2023-05-02T08:02:40;16.70;99.90
4215;DHT22;2121;48.062;7.850;2023-05-02T08:05:06;16.70;99.90
4215;DHT22;2121;48.062;7.850;2023-05-02T08:07:32;16.80;99.90
4215;DHT22;2121;48.062;7.850;2023-05-02T08:09:59;16.70;99.90
4215;DHT22;2121;48.062;7.850;2023-05-02T08:12:26;16.80;99.90
4215;DHT22;2121;48.062;7.850;2023-05-02T08:14:52;16.60;99.90
4215;DHT22;2121;48.062;7.850;2023-05-02T08:17:18;16.30;99.90
4215;DHT22;2121;48.062;7.850;2023-05-02T08:19:43;16.10;99.90
4215;DHT22;2121;48.062;7.850;2023-05-02T08:22:09;16.70;99.90
4215;DHT22;2121;48.062;7.850;2023-05-02T08:24:35;17.30;99.90
4215;DHT22;2121;48.062;7.850;2023-05-02T08:27:01;17.30;99.90
4215;DHT22;2121;48.062;7.850;2023-05-02T08:29:31;16.80;99.90
4215;DHT22;2121;48.062;7.850;2023-05-02T08:31:57;16.90;99.90
4215;DHT22;2121;48.062;7.850;2023-05-02T08:34:22;17.10;99.90
4215;DHT22;2121;48.062;7.850;2023-05-02T08:36:48;17.50;99.90
4215;DHT22;2121;48.062;7.850;2023-05-02T08:39:15;16.80;99.90
4215;DHT22;2121;48.062;7.850;2023-05-02T08:41:41;16.30;99.90
4215;DHT22;2121;48.062;7.850;2023-05-02T08:44:07;16.50;99.90
4215;DHT22;2121;48.062;7.850;2023-05-02T08:46:34;16.30;99.90
4215;DHT22;2121;48.062;7.850;2023-05-02T08:49:02;15.90;99.90
4215;DHT22;2121;48.062;7.850;2023-05-02T08:51:30;15.90;99.90
4215;DHT22;2121;48.062;7.850;2023-05-02T08:54:01;16.00;99.90
4215;DHT22;2121;48.062;7.850;2023-05-02T08:56:28;16.10;99.90
4215;DHT22;2121;48.062;7.850;2023-05-02T08:58:54;16.30;99.90
4215;DHT22;2121;48.062;7.850;2023-05-02T09:01:22;16.80;99.90
4215;DHT22;2121;48.062;7.850;2023-05-02T09:03:48;16.80;99.90
4215;DHT22;2121;48.062;7.850;2023-05-02T09:06:19;17.00;99.90
4215;DHT22;2121;48.062;7.850;2023-05-02T09:08:48;17.40;99.90
4215;DHT22;2121;48.062;7.850;2023-05-02T09:11:15;17.80;99.80
4215;DHT22;2121;48.062;7.850;2023-05-02T09:13:46;18.30;99.90
4215;DHT22;2121;48.062;7.850;2023-05-02T09:18:42;18.50;99.00
4215;DHT22;2121;48.062;7.850;2023-05-02T09:21:12;18.60;99.20
4215;DHT22;2121;48.062;7.850;2023-05-02T09:23:41;19.10;98.10
4215;DHT22;2121;48.062;7.850;2023-05-02T09:26:21;18.00;98.00
4215;DHT22;2121;48.062;7.850;2023-05-02T09:28:53;16.90;99.10
4215;DHT22;2121;48.062;7.850;2023-05-02T09:31:32;17.30;99.90
4215;DHT22;2121;48.062;7.850;2023-05-02T09:34:16;18.30;98.80
4215;DHT22;2121;48.062;7.850;2023-05-02T09:39:11;19.40;98.30
4215;DHT22;2121;48.062;7.850;2023-05-02T09:41:42;19.30;95.80
4215;DHT22;2121;48.062;7.850;2023-05-02T09:44:14;19.50;96.60
4215;DHT22;2121;48.062;7.850;2023-05-02T09:46:49;19.80;96.40
4215;DHT22;2121;48.062;7.850;2023-05-02T09:49:16;20.40;96.30
4215;DHT22;2121;48.062;7.850;2023-05-02T09:51:47;20.90;95.90
4215;DHT22;2121;48.062;7.850;2023-05-02T09:54:13;20.00;96.30
4215;DHT22;2121;48.062;7.850;2023-05-02T09:56:56;18.50;96.50
4215;DHT22;2121;48.062;7.850;2023-05-02T09:59:22;17.80;97.30
4215;DHT22;2121;48.062;7.850;2023-05-02T10:01:55;18.30;97.50
4215;DHT22;2121;48.062;7.850;2023-05-02T10:04:23;17.70;97.60
4215;DHT22;2121;48.062;7.850;2023-05-02T10:06:51;17.10;97.70
4215;DHT22;2121;48.062;7.850;2023-05-02T10:09:19;17.00;97.80
4215;DHT22;2121;48.062;7.850;2023-05-02T10:11:46;17.30;98.30
4215;DHT22;2121;48.062;7.850;2023-05-02T10:14:19;18.10;97.70
4215;DHT22;2121;48.062;7.850;2023-05-02T10:17:04;18.20;97.10
4215;DHT22;2121;48.062;7.850;2023-05-02T10:19:52;18.80;97.40
4215;DHT22;2121;48.062;7.850;2023-05-02T10:22:19;19.30;96.00
4215;DHT22;2121;48.062;7.850;2023-05-02T10:24:48;19.50;96.00
4215;DHT22;2121;48.062;7.850;2023-05-02T10:27:15;19.20;96.20
4215;DHT22;2121;48.062;7.850;2023-05-02T10:29:41;19.40;96.70
4215;DHT22;2121;48.062;7.850;2023-05-02T10:32:07;19.90;95.80
4215;DHT22;2121;48.062;7.850;2023-05-02T10:34:34;19.60;95.30
4215;DHT22;2121;48.062;7.850;2023-05-02T10:37:01;19.40;95.70
4215;DHT22;2121;48.062;7.850;2023-05-02T10:39:27;19.50;95.70
4215;DHT22;2121;48.062;7.850;2023-05-02T10:41:55;19.50;95.70
4215;DHT22;2121;48.062;7.850;2023-05-02T10:44:35;19.80;96.10
4215;DHT22;2121;48.062;7.850;2023-05-02T10:47:18;20.40;95.30
4215;DHT22;2121;48.062;7.850;2023-05-02T10:49:52;20.60;94.80
4215;DHT22;2121;48.062;7.850;2023-05-02T10:55:21;18.90;96.30
4215;DHT22;2121;48.062;7.850;2023-05-02T11:00:29;17.70;98.10
4215;DHT22;2121;48.062;7.850;2023-05-02T11:02:56;17.50;97.90
4215;DHT22;2121;48.062;7.850;2023-05-02T11:05:23;17.20;96.90
4215;DHT22;2121;48.062;7.850;2023-05-02T11:10:41;16.90;97.30
4215;DHT22;2121;48.062;7.850;2023-05-02T11:13:07;17.40;96.60
4215;DHT22;2121;48.062;7.850;2023-05-02T11:18:06;18.00;96.60
4215;DHT22;2121;48.062;7.850;2023-05-02T11:20:32;19.00;96.50
4215;DHT22;2121;48.062;7.850;2023-05-02T11:25:41;19.00;95.00
4215;DHT22;2121;48.062;7.850;2023-05-02T11:34:02;18.40;95.80
4215;DHT22;2121;48.062;7.850;2023-05-02T11:36:32;18.30;95.50
4215;DHT22;2121;48.062;7.850;2023-05-02T11:39:03;18.30;95.80
4215;DHT22;2121;48.062;7.850;2023-05-02T11:41:39;18.50;96.00
4215;DHT22;2121;48.062;7.850;2023-05-02T11:44:05;19.20;96.00
4215;DHT22;2121;48.062;7.850;2023-05-02T11:46:31;19.80;95.70
4215;DHT22;2121;48.062;7.850;2023-05-02T11:48:58;20.10;95.10
4215;DHT22;2121;48.062;7.850;2023-05-02T11:51:24;19.60;93.80
4215;DHT22;2121;48.062;7.850;2023-05-02T11:53:51;19.30;95.20
4215;DHT22;2121;48.062;7.850;2023-05-02T11:56:22;19.50;93.50
4215;DHT22;2121;48.062;7.850;2023-05-02T11:59:02;19.40;93.50
4215;DHT22;2121;48.062;7.850;2023-05-02T12:01:28;19.80;93.00
4215;DHT22;2121;48.062;7.850;2023-05-02T12:04:06;19.90;93.40
4215;DHT22;2121;48.062;7.850;2023-05-02T12:06:33;20.20;93.60
4215;DHT22;2121;48.062;7.850;2023-05-02T12:09:06;20.30;93.00
4215;DHT22;2121;48.062;7.850;2023-05-02T12:11:33;20.60;93.10
4215;DHT22;2121;48.062;7.850;2023-05-02T12:14:01;21.40;93.50
4215;DHT22;2121;48.062;7.850;2023-05-02T12:16:28;22.30;92.90
4215;DHT22;2121;48.062;7.850;2023-05-02T12:18:54;21.90;91.30
4215;DHT22;2121;48.062;7.850;2023-05-02T12:21:22;21.90;90.80
4215;DHT22;2121;48.062;7.850;2023-05-02T12:23:48;20.30;91.40
4215;DHT22;2121;48.062;7.850;2023-05-02T12:26:22;20.70;91.50
4215;DHT22;2121;48.062;7.850;2023-05-02T12:28:53;22.10;91.60
4215;DHT22;2121;48.062;7.850;2023-05-02T12:31:19;23.20;89.50
4215;DHT22;2121;48.062;7.850;2023-05-02T12:33:46;24.30;89.00
4215;DHT22;2121;48.062;7.850;2023-05-02T12:36:17;23.40;86.60
4215;DHT22;2121;48.062;7.850;2023-05-02T12:38:54;22.30;90.20
4215;DHT22;2121;48.062;7.850;2023-05-02T12:41:37;21.70;89.00
4215;DHT22;2121;48.062;7.850;2023-05-02T12:44:06;22.60;90.50
4215;DHT22;2121;48.062;7.850;2023-05-02T12:46:32;25.00;89.00
4215;DHT22;2121;48.062;7.850;2023-05-02T12:49:06;24.20;83.30
4215;DHT22;2121;48.062;7.850;2023-05-02T12:51:37;23.60;85.00
4215;DHT22;2121;48.062;7.850;2023-05-02T12:54:04;23.50;83.90
4215;DHT22;2121;48.062;7.850;2023-05-02T12:56:38;24.60;86.30
4215;DHT22;2121;48.062;7.850;2023-05-02T12:59:04;26.00;81.20
4215;DHT22;2121;48.062;7.850;2023-05-02T13:01:32;25.10;82.00
4215;DHT22;2121;48.062;7.850;2023-05-02T13:03:58;25.80;80.30
4215;DHT22;2121;48.062;7.850;2023-05-02T13:06:24;25.60;80.00
4215;DHT22;2121;48.062;7.850;2023-05-02T13:08:50;26.00;79.60
4215;DHT22;2121;48.062;7.850;2023-05-02T13:11:16;24.70;80.00
4215;DHT22;2121;48.062;7.850;2023-05-02T13:13:42;23.10;81.30
4215;DHT22;2121;48.062;7.850;2023-05-02T13:16:07;22.60;81.20
4215;DHT22;2121;48.062;7.850;2023-05-02T13:18:33;23.90;80.80
4215;DHT22;2121;48.062;7.850;2023-05-02T13:20:59;25.40;78.60
4215;DHT22;2121;48.062;7.850;2023-05-02T13:23:25;25.90;76.20
4215;DHT22;2121;48.062;7.850;2023-05-02T13:25:50;26.20;77.70
4215;DHT22;2121;48.062;7.850;2023-05-02T13:28:16;25.80;76.60
4215;DHT22;2121;48.062;7.850;2023-05-02T13:30:43;27.20;75.00
4215;DHT22;2121;48.062;7.850;2023-05-02T13:33:08;26.60;72.10
4215;DHT22;2121;48.062;7.850;2023-05-02T13:35:34;25.30;76.40
4215;DHT22;2121;48.062;7.850;2023-05-02T13:38:00;23.90;74.80
4215;DHT22;2121;48.062;7.850;2023-05-02T13:40:26;23.80;75.50
4215;DHT22;2121;48.062;7.850;2023-05-02T13:42:51;25.10;73.70
4215;DHT22;2121;48.062;7.850;2023-05-02T13:45:17;25.20;73.90
4215;DHT22;2121;48.062;7.850;2023-05-02T13:47:43;24.50;72.80
4215;DHT22;2121;48.062;7.850;2023-05-02T13:50:09;23.60;73.20
4215;DHT22;2121;48.062;7.850;2023-05-02T13:52:35;23.70;71.90
4215;DHT22;2121;48.062;7.850;2023-05-02T13:55:01;22.80;71.70
4215;DHT22;2121;48.062;7.850;2023-05-02T13:57:27;21.80;75.50
4215;DHT22;2121;48.062;7.850;2023-05-02T13:59:53;21.30;73.70
4215;DHT22;2121;48.062;7.850;2023-05-02T14:02:18;21.30;74.40
4215;DHT22;2121;48.062;7.850;2023-05-02T14:04:44;21.10;74.50
4215;DHT22;2121;48.062;7.850;2023-05-02T14:07:10;21.10;76.70
4215;DHT22;2121;48.062;7.850;2023-05-02T14:09:36;21.50;78.10
4215;DHT22;2121;48.062;7.850;2023-05-02T14:12:01;21.30;78.70
4215;DHT22;2121;48.062;7.850;2023-05-02T14:14:27;21.80;75.40
4215;DHT22;2121;48.062;7.850;2023-05-02T14:16:53;24.10;76.10
4215;DHT22;2121;48.062;7.850;2023-05-02T14:19:18;23.50;77.70
4215;DHT22;2121;48.062;7.850;2023-05-02T14:21:44;24.00;78.10
4215;DHT22;2121;48.062;7.850;2023-05-02T14:24:10;25.10;78.20
4215;DHT22;2121;48.062;7.850;2023-05-02T14:26:37;23.80;78.90
4215;DHT22;2121;48.062;7.850;2023-05-02T14:29:02;24.40;79.10
4215;DHT22;2121;48.062;7.850;2023-05-02T14:31:28;24.00;77.20
4215;DHT22;2121;48.062;7.850;2023-05-02T14:33:54;25.10;76.40
4215;DHT22;2121;48.062;7.850;2023-05-02T14:36:20;25.40;74.60
4215;DHT22;2121;48.062;7.850;2023-05-02T14:38:45;24.80;75.70
4215;DHT22;2121;48.062;7.850;2023-05-02T14:41:11;24.20;76.90
4215;DHT22;2121;48.062;7.850;2023-05-02T14:43:37;24.60;77.80
4215;DHT22;2121;48.062;7.850;2023-05-02T14:46:04;24.70;77.10
4215;DHT22;2121;48.062;7.850;2023-05-02T14:48:29;24.50;77.00
4215;DHT22;2121;48.062;7.850;2023-05-02T14:50:55;23.60;77.10
4215;DHT22;2121;48.062;7.850;2023-05-02T14:53:23;23.50;78.10
4215;DHT22;2121;48.062;7.850;2023-05-02T14:55:48;23.60;80.10
4215;DHT22;2121;48.062;7.850;2023-05-02T14:58:14;22.90;81.60
4215;DHT22;2121;48.062;7.850;2023-05-02T15:00:45;22.30;84.20
4215;DHT22;2121;48.062;7.850;2023-05-02T15:03:11;22.30;82.80
4215;DHT22;2121;48.062;7.850;2023-05-02T15:05:37;22.80;82.60
4215;DHT22;2121;48.062;7.850;2023-05-02T15:08:03;22.30;83.50
4215;DHT22;2121;48.062;7.850;2023-05-02T15:10:29;22.70;82.60
4215;DHT22;2121;48.062;7.850;2023-05-02T15:12:55;22.20;85.00
4215;DHT22;2121;48.062;7.850;2023-05-02T15:15:20;22.00;84.10
4215;DHT22;2121;48.062;7.850;2023-05-02T15:17:50;21.80;84.60
4215;DHT22;2121;48.062;7.850;2023-05-02T15:20:17;22.40;83.90
4215;DHT22;2121;48.062;7.850;2023-05-02T15:22:43;22.30;85.40
4215;DHT22;2121;48.062;7.850;2023-05-02T15:25:09;22.80;84.40
4215;DHT22;2121;48.062;7.850;2023-05-02T15:27:34;23.70;82.10
4215;DHT22;2121;48.062;7.850;2023-05-02T15:30:00;22.80;81.40
4215;DHT22;2121;48.062;7.850;2023-05-02T15:32:31;22.20;82.80
4215;DHT22;2121;48.062;7.850;2023-05-02T15:34:57;22.70;83.00
4215;DHT22;2121;48.062;7.850;2023-05-02T15:37:22;23.50;82.30
4215;DHT22;2121;48.062;7.850;2023-05-02T15:39:48;24.00;79.20
4215;DHT22;2121;48.062;7.850;2023-05-02T15:42:15;23.40;80.10
4215;DHT22;2121;48.062;7.850;2023-05-02T15:44:41;23.40;79.70
4215;DHT22;2121;48.062;7.850;2023-05-02T15:47:06;22.20;80.50
4215;DHT22;2121;48.062;7.850;2023-05-02T15:49:33;22.00;82.80
4215;DHT22;2121;48.062;7.850;2023-05-02T15:51:59;22.50;81.70
4215;DHT22;2121;48.062;7.850;2023-05-02T15:54:25;22.70;82.20
4215;DHT22;2121;48.062;7.850;2023-05-02T15:56:51;22.70;83.30
4215;DHT22;2121;48.062;7.850;2023-05-02T15:59:17;21.70;82.20
4215;DHT22;2121;48.062;7.850;2023-05-02T16:01:43;21.30;82.10
4215;DHT22;2121;48.062;7.850;2023-05-02T16:04:09;21.50;82.00
4215;DHT22;2121;48.062;7.850;2023-05-02T16:06:35;21.60;82.10
4215;DHT22;2121;48.062;7.850;2023-05-02T16:09:04;21.50;83.00
4215;DHT22;2121;48.062;7.850;2023-05-02T16:11:31;21.60;79.50
4215;DHT22;2121;48.062;7.850;2023-05-02T16:13:57;21.40;81.10
4215;DHT22;2121;48.062;7.850;2023-05-02T16:16:26;21.20;81.70
4215;DHT22;2121;48.062;7.850;2023-05-02T16:18:52;21.60;80.10
4215;DHT22;2121;48.062;7.850;2023-05-02T16:21:18;21.70;80.10
4215;DHT22;2121;48.062;7.850;2023-05-02T16:23:43;22.00;80.00
4215;DHT22;2121;48.062;7.850;2023-05-02T16:26:09;21.80;79.00
4215;DHT22;2121;48.062;7.850;2023-05-02T16:28:35;22.40;79.70
4215;DHT22;2121;48.062;7.850;2023-05-02T16:31:07;23.70;78.40
4215;DHT22;2121;48.062;7.850;2023-05-02T16:33:39;25.30;76.30
4215;DHT22;2121;48.062;7.850;2023-05-02T16:36:05;26.90;74.10
4215;DHT22;2121;48.062;7.850;2023-05-02T16:38:31;26.50;73.70
4215;DHT22;2121;48.062;7.850;2023-05-02T16:40:57;25.70;74.20
4215;DHT22;2121;48.062;7.850;2023-05-02T16:43:23;26.30;72.00
4215;DHT22;2121;48.062;7.850;2023-05-02T16:45:59;24.80;72.10
4215;DHT22;2121;48.062;7.850;2023-05-02T16:48:26;23.90;72.30